• Join FlightAware (Why Join?)
  • Login
  • US Flag GB Flag 
02:11 EDT


 

Airport Tracker/Info


-or-


 

Live Flight TrackerFlight Track Log ✈ AAL963 ✈ 23-Jul-2013 ✈ KDFW - SBGR / GRU

Flight Track Log - Related Links

Times and Time Zones

All times are in EDT time to prevent confusion due to time zone crossing. See the AAL963 flight status page for this flight to view local times or setup timezone preferences in your user account.

Time Position Orientation Groundspeed Altitude Reporting Facility
EDT Latitude Longitude Course Direction KTS MPH feet Rate Location/Type
21:42 32.8480 -97.0550 189° South 183 211 2,300  Level FlightAware
21:42 32.8370 -97.0580 193° South 193 222 2,500 600 Climbing FlightAware
21:43 32.8040 -97.0640 189° South 229 264 2,800 780 Climbing FlightAware
21:43 32.7770 -97.0690 189° South 243 280 3,300 1,380 Climbing FlightAware
21:44 32.7430 -97.0750 188° South 253 291 4,100 1,560 Climbing FlightAware
21:44 32.7180 -97.0790 188° South 260 299 4,700 1,620 Climbing FlightAware
21:45 32.6710 -97.0760 177° South 272 313 5,800 1,680 Climbing FlightAware
21:45 32.6340 -97.0530 152° Southeast 283 326 6,700 1,680 Climbing FlightAware
21:46 32.6040 -97.0340 152° Southeast 288 331 7,400 1,680 Climbing FlightAware
21:46 32.5690 -97.0090 149° Southeast 293 337 8,300 1,740 Climbing FlightAware
21:46 32.5550 -97.0000 152° Southeast 296 341 8,600 1,500 Climbing FlightAware
21:47 32.5210 -96.9770 150° Southeast 301 346 9,300 1,560 Climbing FlightAware
21:48 32.4680 -96.9400 149° Southeast 311 358 10,500 900 Climbing FlightAware
21:48 32.4160 -96.9050 150° Southeast 351 404 10,600 600 Climbing FlightAware
21:49 32.3580 -96.8650 150° Southeast 375 432 11,300 1,080 Climbing FlightAware
21:50 32.2990 -96.8260 151° Southeast 391 450 12,000 1,200 Climbing FlightAware
21:50 32.2270 -96.7920 158° South 404 465 13,000 1,560 Climbing FlightAware
21:51 32.1640 -96.7690 163° South 408 470 14,100 1,800 Climbing FlightAware
21:51 32.1226 -96.7536 163° South 412 474 14,700 1,680 Climbing FlightAware ADS-B
21:52 32.0631 -96.7312 162° South 416 479 15,600 1,560 Climbing FlightAware ADS-B
21:52 32.0039 -96.7085 162° South 422 486 16,400 1,380 Climbing FlightAware ADS-B
21:53 31.9145 -96.6746 162° South 432 497 17,500 1,260 Climbing FlightAware ADS-B
21:54 31.8460 -96.6480 162° South 441 507 18,200 1,200 Climbing FlightAware
21:54 31.8212 -96.6379 161° South 440 506 18,500 1,260 Climbing FlightAware ADS-B
21:54 31.7610 -96.6128 160° South 453 521 19,100 1,260 Climbing FlightAware ADS-B
21:55 31.6928 -96.5847 161° South 457 526 19,900 1,380 Climbing FlightAware ADS-B
21:55 31.6308 -96.5594 161° South 463 533 20,600 1,260 Climbing FlightAware ADS-B
21:56 31.5644 -96.5324 161° South 467 537 21,300 1,260 Climbing FlightAware ADS-B
21:57 31.4994 -96.5062 161° South 470 541 22,000 1,320 Climbing FlightAware ADS-B
21:57 31.4339 -96.4818 162° South 472 543 22,700 1,140 Climbing FlightAware ADS-B
21:59 31.2416 -96.4082 158° South 483 556 24,400 1,080 Climbing FlightAware ADS-B
21:59 31.2166 -96.3930 153° Southeast 484 557 24,600 900 Climbing FlightAware ADS-B
21:59 31.1819 -96.3638 142° Southeast 485 558 24,900 960 Climbing FlightAware ADS-B
22:00 31.1324 -96.3077 136° Southeast 490 564 25,400 900 Climbing FlightAware ADS-B
22:01 31.0337 -96.1915 135° Southeast 496 571 26,300 900 Climbing FlightAware ADS-B
22:01 30.9841 -96.1334 135° Southeast 499 574 26,800 840 Climbing FlightAware ADS-B
22:03 30.8321 -95.9573 135° Southeast 508 585 28,100 780 Climbing FlightAware ADS-B
22:03 30.7819 -95.8995 135° Southeast 510 587 28,500 780 Climbing FlightAware ADS-B
22:04 30.7312 -95.8412 135° Southeast 512 589 28,900 780 Climbing FlightAware ADS-B
22:04 30.6802 -95.7825 135° Southeast 512 589 29,300 720 Climbing FlightAware ADS-B
22:05 30.5717 -95.6579 135° Southeast 515 593 30,100 900 Climbing FlightAware ADS-B
22:06 30.5203 -95.5990 135° Southeast 510 587 30,800 1,140 Climbing FlightAware ADS-B
22:06 30.4696 -95.5410 135° Southeast 508 585 31,300 900 Climbing FlightAware ADS-B
22:07 30.4191 -95.4833 135° Southeast 508 585 31,700 780 Climbing FlightAware ADS-B
22:08 30.2641 -95.3067 135° Southeast 506 582 32,900 300 Climbing FlightAware ADS-B
22:10 30.0390 -95.0585 138° Southeast 505 581 33,000  Climbing FlightAware ADS-B
22:11 30.0014 -95.0096 132° Southeast 506 582 33,000  Level FlightAware ADS-B
22:11 29.9507 -94.9523 136° Southeast 506 582 33,000  Level FlightAware ADS-B
22:12 29.9005 -94.8959 136° Southeast 505 581 33,000  Level FlightAware ADS-B
22:12 29.8500 -94.8392 136° Southeast 505 581 33,000  Level FlightAware ADS-B
22:13 29.7483 -94.7253 136° Southeast 504 580 33,000  Level FlightAware ADS-B
22:14 29.6970 -94.6679 136° Southeast 505 581 33,000  Level FlightAware ADS-B
22:15 29.5443 -94.4978 136° Southeast 504 580 33,000  Level FlightAware ADS-B
22:16 29.4941 -94.4420 136° Southeast 504 580 33,000  Level FlightAware ADS-B
22:18 29.3398 -94.2710 136° Southeast 504 580 33,000  Level FlightAware ADS-B
22:18 29.2894 -94.2153 136° Southeast 503 579 33,000  Level FlightAware ADS-B
22:19 29.2383 -94.1590 136° Southeast 504 580 33,000  Level FlightAware ADS-B
22:19 29.1858 -94.1012 136° Southeast 503 579 33,000  Level FlightAware ADS-B
22:20 29.0553 -93.9561 136° Southeast 504 580 33,000  Level Houston Center
22:21 28.9536 -93.8467 137° Southeast 502 578 33,000  Level Houston Center
22:22 28.8531 -93.7369 136° Southeast 501 577 33,000  Level Houston Center
22:23 28.7522 -93.6264 136° Southeast 502 578 33,000 -60 Level Houston Center
22:25 28.6594 -93.5258 136° Southeast 500 575 32,900  Descending Houston Center
22:26 28.5517 -93.4081 136° Southeast 499 574 33,000  Climbing Houston Center
22:27 28.4506 -93.2983 136° Southeast 501 577 33,000  Level Houston Center
22:28 28.3375 -93.1789 137° Southeast 499 574 33,000  Level Houston Center
22:29 28.2375 -93.0686 136° Southeast 501 577 33,000 -60 Level Houston Center
22:30 28.1367 -92.9628 137° Southeast 497 572 32,900  Descending Houston Center
22:31 28.0375 -92.8569 137° Southeast 493 567 33,000  Climbing Houston Center
22:32 27.9369 -92.7517 137° Southeast 493 567 33,000  Level Houston Center
22:33 27.8369 -92.6428 136° Southeast 497 572 33,000  Level Houston Center
22:34 27.7358 -92.5397 138° Southeast 492 566 33,000 -60 Level Houston Center
22:35 27.6356 -92.4317 136° Southeast 497 572 32,900 -60 Descending Houston Center
22:36 27.5342 -92.3247 137° Southeast 499 574 32,900  Level Houston Center
22:37 27.4136 -92.1992 137° Southeast 493 567 33,000  Climbing Houston Center
22:38 27.3128 -92.0947 137° Southeast 494 568 32,900 -60 Descending Houston Center
22:39 27.2125 -91.9889 137° Southeast 494 568 32,900  Level Houston Center
22:40 27.1044 -91.8908 141° Southeast 498 573 33,000  Climbing Houston Center
22:41 26.9911 -91.7997 144° Southeast 500 575 33,000  Level Houston Center
22:43 26.8076 -91.6512 144° Southeast  Level FlightAware Approximate
22:50 26.0564 -91.0522 145° Southeast  Level FlightAware Approximate
22:51 25.9487 -90.9677 145° Southeast  Level FlightAware Approximate
22:52 25.8408 -90.8833 145° Southeast  Level FlightAware Approximate
22:53 25.7330 -90.7991 145° Southeast  Level FlightAware Approximate
22:54 25.6250 -90.7151 145° Southeast  Level FlightAware Approximate
22:55 25.5170 -90.6312 145° Southeast  Level FlightAware Approximate
22:56 25.4090 -90.5474 145° Southeast  Level FlightAware Approximate
22:57 25.3009 -90.4638 145° Southeast  Level FlightAware Approximate
22:58 25.1928 -90.3804 145° Southeast  Level FlightAware Approximate
22:59 25.0847 -90.2971 145° Southeast  Level FlightAware Approximate
23:00 24.9764 -90.2139 145° Southeast  Level FlightAware Approximate
23:01 24.8682 -90.1309 145° Southeast  Level FlightAware Approximate
23:02 24.7599 -90.0481 145° Southeast  Level FlightAware Approximate
23:03 24.6515 -89.9654 145° Southeast  Level FlightAware Approximate
23:04 24.5431 -89.8828 145° Southeast  Level FlightAware Approximate
23:05 24.4360 -89.7986 146° Southeast  Level FlightAware Approximate
23:06 24.3263 -89.7183 146° Southeast  Level FlightAware Approximate
23:07 24.2166 -89.6381 146° Southeast  Level FlightAware Approximate
23:08 24.1068 -89.5580 146° Southeast  Level FlightAware Approximate
23:09 23.9981 -89.4763 145° Southeast  Level FlightAware Approximate
23:10 23.8906 -89.3927 145° Southeast  Level FlightAware Approximate
23:10 23.7510 -89.2870 145° Southeast 488 562 33,000  Level FlightAware
23:10 23.6840 -89.2350 145° Southeast 489 563 33,000  Level FlightAware
23:11 23.6240 -89.1900 146° Southeast 489 563 33,000  Level FlightAware
23:12 23.5670 -89.1460 145° Southeast 489 563 33,000  Level FlightAware
23:12 23.4550 -89.0650 146° Southeast 490 564 33,000  Level FlightAware
23:13 23.3710 -89.0020 145° Southeast 491 565 33,000  Level FlightAware
23:14 23.2750 -88.9300 145° Southeast 492 566 33,000  Level FlightAware
23:15 23.1930 -88.8700 146° Southeast 494 568 33,000  Level FlightAware
23:16 23.0890 -88.7920 145° Southeast 493 567 33,000  Level FlightAware
23:16 23.0140 -88.7360 145° Southeast 493 567 33,000  Level FlightAware
23:17 22.9290 -88.6740 146° Southeast 494 568 33,000  Level FlightAware
23:18 22.8110 -88.5860 145° Southeast 494 568 33,000  Level FlightAware
23:19 22.7280 -88.5250 146° Southeast 494 568 33,000  Level FlightAware
23:19 22.6510 -88.4690 146° Southeast 495 570 33,000  Level FlightAware
23:20 22.5850 -88.4150 143° Southeast 495 570 33,000  Level FlightAware
23:21 22.5120 -88.3430 138° Southeast 495 570 33,000  Level FlightAware
23:22 22.4280 -88.2560 136° Southeast 496 571 33,000  Level FlightAware
23:22 22.3780 -88.2030 136° Southeast 496 571 33,000  Level FlightAware
23:24 22.2750 -88.0960 136° Southeast 496 571 33,000  Level FlightAware
23:24 22.1710 -87.9970 139° Southeast 497 572 33,000  Level FlightAware
23:25 22.1220 -87.9460 136° Southeast 497 572 33,000  Level FlightAware
23:26 22.0360 -87.8600 137° Southeast 498 573 33,000  Level FlightAware
23:26 21.9640 -87.7880 137° Southeast 496 571 33,000  Level FlightAware
23:27 21.8890 -87.7120 137° Southeast 495 570 33,000  Level FlightAware
23:28 21.8270 -87.6500 137° Southeast 496 571 33,000  Level FlightAware
23:28 21.7490 -87.5730 137° Southeast 496 571 33,000  Level FlightAware
23:29 21.6670 -87.4920 137° Southeast 496 571 33,000  Level FlightAware
23:30 21.5850 -87.4100 137° Southeast 497 572 33,000  Level FlightAware
23:31 21.5190 -87.3450 137° Southeast 497 572 33,000  Level FlightAware
23:31 21.4420 -87.2690 137° Southeast 496 571 33,000  Level FlightAware
23:32 21.3730 -87.2000 137° Southeast 496 571 33,000  Level FlightAware
23:33 21.3030 -87.1320 138° Southeast 496 571 33,000  Level FlightAware
23:34 21.2260 -87.0560 137° Southeast 498 573 33,000  Level FlightAware
23:34 21.1710 -87.0020 138° Southeast 498 573 33,000  Level FlightAware
23:35 21.0960 -86.9290 138° Southeast 498 573 33,000  Level FlightAware
23:35 21.0290 -86.8620 137° Southeast 499 574 33,000  Level FlightAware
23:36 20.9590 -86.7950 138° Southeast 499 574 33,000  Level FlightAware
23:37 20.8840 -86.7220 138° Southeast 499 574 33,000  Level FlightAware
23:38 20.8090 -86.6490 138° Southeast 500 575 33,000  Level FlightAware
23:38 20.7430 -86.5850 138° Southeast 500 575 33,000  Level FlightAware
23:39 20.6650 -86.5090 138° Southeast 499 574 33,000 120 Level FlightAware
23:40 20.5990 -86.4460 138° Southeast 499 574 33,200 600 Climbing FlightAware
23:40 20.5220 -86.3720 138° Southeast 496 571 33,900 480 Climbing FlightAware
23:41 20.4630 -86.3130 137° Southeast 496 571 33,900 780 Level FlightAware
23:42 20.3850 -86.2390 138° Southeast 492 566 35,000 720 Climbing FlightAware
23:43 20.3070 -86.1630 138° Southeast 492 566 35,000  Level FlightAware
23:43 20.2130 -86.0740 138° Southeast 494 568 35,000  Level FlightAware
23:44 20.1430 -86.0070 138° Southeast 494 568 35,000  Level FlightAware
23:45 20.0760 -85.9430 138° Southeast 494 568 35,000  Level FlightAware
23:45 20.0010 -85.8710 138° Southeast 496 571 35,000  Level FlightAware
23:46 19.9380 -85.8120 139° Southeast 496 571 35,000  Level FlightAware
23:47 19.8710 -85.7490 139° Southeast 497 572 35,000  Level FlightAware
23:47 19.7950 -85.6770 138° Southeast 497 572 35,000  Level FlightAware
23:48 19.7330 -85.6190 139° Southeast 497 572 35,000  Level FlightAware
23:49 19.6360 -85.5280 139° Southeast 500 575 35,000  Level FlightAware
23:50 19.5680 -85.4640 138° Southeast 500 575 35,000  Level FlightAware
23:50 19.5030 -85.4040 139° Southeast 500 575 35,000  Level FlightAware
23:51 19.4280 -85.3330 138° Southeast 501 577 35,000  Level FlightAware
23:52 19.3580 -85.2680 139° Southeast 502 578 35,000  Level FlightAware
23:53 19.2800 -85.1940 138° Southeast 502 578 35,000  Level FlightAware
23:53 19.1940 -85.1140 139° Southeast 503 579 35,000  Level FlightAware
23:54 19.1410 -85.0630 138° Southeast 503 579 35,000  Level FlightAware
23:55 19.0690 -84.9950 138° Southeast 503 579 35,000  Level FlightAware
23:55 19.0160 -84.9440 138° Southeast 503 579 35,000  Level FlightAware
23:56 18.9630 -84.8940 138° Southeast 503 579 35,000  Level FlightAware
23:57 18.8930 -84.8270 138° Southeast 503 579 35,000  Level FlightAware
23:57 18.8400 -84.7760 138° Southeast 503 579 35,000  Level FlightAware
23:58 18.7690 -84.7090 138° Southeast 503 579 35,000  Level FlightAware
23:59 18.7160 -84.6590 138° Southeast 503 579 35,000  Level FlightAware
00:00 18.6460 -84.5920 138° Southeast 503 579 35,000  Level FlightAware
00:00 18.5930 -84.5420 138° Southeast 503 579 35,000  Level FlightAware
00:01 18.5030 -84.4560 138° Southeast 503 579 35,000  Level FlightAware
00:02 18.4500 -84.4060 138° Southeast 503 579 35,000  Level FlightAware
00:03 18.3800 -84.3390 138° Southeast 503 579 35,000 -60 Level FlightAware
00:05 18.1830 -84.1650 140° Southeast  Level FlightAware Approximate
00:06 18.0819 -84.0760 140° Southeast  Level FlightAware Approximate
00:07 17.9807 -83.9870 140° Southeast  Level FlightAware Approximate
00:08 17.8795 -83.8981 140° Southeast  Level FlightAware Approximate
00:09 17.7783 -83.8094 140° Southeast  Level FlightAware Approximate
00:10 17.6770 -83.7207 140° Southeast  Level FlightAware Approximate
00:11 17.5757 -83.6321 140° Southeast  Level FlightAware Approximate
00:12 17.4744 -83.5437 140° Southeast  Level FlightAware Approximate
00:13 17.3730 -83.4553 140° Southeast  Level FlightAware Approximate
00:14 17.2716 -83.3671 140° Southeast  Level FlightAware Approximate
00:15 17.1701 -83.2789 140° Southeast  Level FlightAware Approximate
00:16 17.0686 -83.1908 140° Southeast  Level FlightAware Approximate
00:17 16.9671 -83.1028 140° Southeast  Level FlightAware Approximate
00:18 16.8655 -83.0150 140° Southeast  Level FlightAware Approximate
00:19 16.7639 -82.9272 140° Southeast  Level FlightAware Approximate
00:20 16.6622 -82.8395 140° Southeast  Level FlightAware Approximate
00:21 16.5606 -82.7519 140° Southeast  Level FlightAware Approximate
00:22 16.4588 -82.6644 140° Southeast  Level FlightAware Approximate
00:23 16.3571 -82.5769 140° Southeast  Level FlightAware Approximate
00:24 16.2553 -82.4896 141° Southeast  Level FlightAware Approximate
00:25 16.1535 -82.4024 141° Southeast  Level FlightAware Approximate
00:26 16.0516 -82.3152 141° Southeast  Level FlightAware Approximate
00:27 15.9497 -82.2282 141° Southeast  Level FlightAware Approximate
00:28 15.8481 -82.1398 140° Southeast  Level FlightAware Approximate
00:29 15.7473 -82.0514 140° Southeast  Level FlightAware Approximate
00:30 15.6465 -81.9632 140° Southeast  Level FlightAware Approximate
00:31 15.5456 -81.8750 140° Southeast  Level FlightAware Approximate
00:32 15.4449 -81.7870 140° Southeast  Level FlightAware Approximate
00:33 15.3441 -81.6992 140° Southeast  Level FlightAware Approximate
00:34 15.2433 -81.6114 140° Southeast  Level FlightAware Approximate
00:35 15.1425 -81.5238 140° Southeast  Level FlightAware Approximate
00:36 15.0417 -81.4361 140° Southeast  Level FlightAware Approximate
00:37 14.9405 -81.3489 140° Southeast  Level FlightAware Approximate
00:38 14.8392 -81.2620 140° Southeast  Level FlightAware Approximate
00:39 14.7379 -81.1751 140° Southeast  Level FlightAware Approximate
00:40 14.6365 -81.0883 140° Southeast  Level FlightAware Approximate
00:41 14.5351 -81.0016 140° Southeast  Level FlightAware Approximate
00:42 14.4336 -80.9150 140° Southeast  Level FlightAware Approximate
00:43 14.3321 -80.8285 140° Southeast  Level FlightAware Approximate
00:44 14.2306 -80.7420 140° Southeast  Level FlightAware Approximate
00:45 14.1291 -80.6556 140° Southeast  Level FlightAware Approximate
00:46 14.0275 -80.5693 140° Southeast  Level FlightAware Approximate
00:47 13.9259 -80.4831 141° Southeast  Level FlightAware Approximate
00:48 13.8243 -80.3969 141° Southeast  Level FlightAware Approximate
00:49 13.7226 -80.3109 141° Southeast  Level FlightAware Approximate
00:50 13.6209 -80.2248 141° Southeast  Level FlightAware Approximate
00:51 13.5192 -80.1389 141° Southeast  Level FlightAware Approximate
00:52 13.4175 -80.0530 141° Southeast  Level FlightAware Approximate
00:53 13.3157 -79.9673 141° Southeast  Level FlightAware Approximate
00:54 13.2139 -79.8815 141° Southeast  Level FlightAware Approximate
00:55 13.1120 -79.7959 141° Southeast  Level FlightAware Approximate
00:56 13.0102 -79.7103 141° Southeast  Level FlightAware Approximate
00:57 12.9083 -79.6248 141° Southeast  Level FlightAware Approximate
00:58 12.8064 -79.5394 141° Southeast  Level FlightAware Approximate
00:59 12.7044 -79.4540 141° Southeast  Level FlightAware Approximate
01:00 12.6024 -79.3687 141° Southeast  Level FlightAware Approximate
01:01 12.5004 -79.2835 141° Southeast  Level FlightAware Approximate
01:02 12.3984 -79.1983 141° Southeast  Level FlightAware Approximate
01:03 12.2963 -79.1133 141° Southeast  Level FlightAware Approximate
01:04 12.1943 -79.0282 141° Southeast  Level FlightAware Approximate
01:05 12.0921 -78.9433 141° Southeast  Level FlightAware Approximate
01:06 11.9900 -78.8584 141° Southeast  Level FlightAware Approximate
01:07 11.8878 -78.7735 141° Southeast  Level FlightAware Approximate
01:08 11.7857 -78.6888 141° Southeast  Level FlightAware Approximate
01:09 11.6834 -78.6041 141° Southeast  Level FlightAware Approximate
01:10 11.5812 -78.5194 141° Southeast  Level FlightAware Approximate
01:11 11.4789 -78.4348 141° Southeast  Level FlightAware Approximate
01:12 11.3767 -78.3503 141° Southeast  Level FlightAware Approximate
01:13 11.2744 -78.2659 141° Southeast  Level FlightAware Approximate
01:14 11.1720 -78.1815 141° Southeast  Level FlightAware Approximate
01:15 11.0697 -78.0971 141° Southeast  Level FlightAware Approximate
01:16 10.9673 -78.0128 141° Southeast  Level FlightAware Approximate
01:17 10.8649 -77.9286 141° Southeast  Level FlightAware Approximate
01:18 10.7626 -77.8446 141° Southeast  Level FlightAware Approximate
01:19 10.6604 -77.7606 141° Southeast  Level FlightAware Approximate
01:19 10.3480 -76.8480 141° Southeast 489 563 33,000  Level FlightAware
01:20 10.5581 -77.6767 141° Southeast  Level FlightAware Approximate
01:20 10.2940 -76.7980 138° Southeast 488 562 33,000  Level FlightAware
01:20 10.2270 -76.7360 138° Southeast 488 562 33,000  Level FlightAware
01:21 10.1630 -76.6760 137° Southeast 486 559 33,000  Level FlightAware
01:22 10.0600 -76.5800 137° Southeast 483 556 33,000  Level FlightAware
01:23 9.9900 -76.5160 138° Southeast 482 555 33,000  Level FlightAware
01:24 9.8980 -76.4300 137° Southeast 482 555 33,000  Level FlightAware
01:24 9.8480 -76.3830 137° Southeast 482 555 33,000  Level FlightAware
01:25 9.7530 -76.2970 138° Southeast 481 554 33,000  Level FlightAware
01:26 9.6780 -76.2270 137° Southeast 481 554 33,000  Level FlightAware
01:27 9.6190 -76.1730 138° Southeast 480 552 33,000  Level FlightAware
01:27 9.5540 -76.1130 138° Southeast 480 552 33,000  Level FlightAware
01:28 9.4830 -76.0470 137° Southeast 479 551 33,000  Level FlightAware
01:29 9.4170 -75.9870 138° Southeast 478 550 33,000  Level FlightAware
01:29 9.3510 -75.9260 138° Southeast 480 552 33,000  Level FlightAware
01:30 9.2760 -75.8570 138° Southeast 480 552 33,000  Level FlightAware
01:31 9.2150 -75.8000 137° Southeast 480 552 33,000  Level FlightAware
01:31 9.1590 -75.7490 138° Southeast 480 552 33,000  Level FlightAware
01:32 9.0800 -75.6760 138° Southeast 481 554 33,000  Level FlightAware
01:33 9.0060 -75.6080 138° Southeast 479 551 33,000  Level FlightAware
01:34 8.9330 -75.5410 138° Southeast 479 551 33,000  Level FlightAware
01:34 8.8770 -75.4900 138° Southeast 479 551 33,000  Level FlightAware
01:35 8.7900 -75.4100 138° Southeast 478 550 33,000  Level FlightAware
01:36 8.7240 -75.3500 138° Southeast 477 549 33,000  Level FlightAware
01:36 8.6540 -75.2860 138° Southeast 476 548 33,000  Level FlightAware
01:37 8.5940 -75.2310 138° Southeast 475 547 33,000  Level FlightAware
01:38 8.5010 -75.1460 138° Southeast 474 545 33,000  Level FlightAware
01:39 8.4350 -75.0850 138° Southeast 472 543 33,000  Level FlightAware
01:39 8.3700 -75.0260 138° Southeast 472 543 33,000  Level FlightAware
01:40 8.3020 -74.9640 138° Southeast 472 543 33,000  Level FlightAware
01:41 8.2290 -74.8970 138° Southeast 472 543 33,000  Level FlightAware
01:41 8.1810 -74.8530 138° Southeast 470 541 33,000  Level FlightAware
01:42 8.1100 -74.7880 138° Southeast 470 541 33,000  Level FlightAware
01:43 8.0440 -74.7280 138° Southeast 471 542 33,000  Level FlightAware
01:43 7.9700 -74.6610 138° Southeast 469 540 33,000  Level FlightAware
01:44 7.9060 -74.6030 138° Southeast 467 537 33,000  Level FlightAware
01:45 7.8420 -74.5440 138° Southeast 467 537 33,000 240 Level FlightAware
01:45 7.7680 -74.4770 138° Southeast 472 543 33,400 720 Climbing FlightAware
01:46 7.7140 -74.4270 137° Southeast 472 543 34,000 1,080 Climbing FlightAware
01:47 7.6480 -74.3680 138° Southeast 466 536 34,800 1,080 Climbing FlightAware
01:47 7.5840 -74.3100 138° Southeast 463 533 35,500 780 Climbing FlightAware
01:48 7.5200 -74.2510 138° Southeast 464 534 35,900 660 Climbing FlightAware
01:49 7.4560 -74.1930 138° Southeast 463 533 36,400 660 Climbing FlightAware
01:49 7.3850 -74.1280 138° Southeast 463 533 36,900 420 Climbing FlightAware
01:50 7.3200 -74.0700 138° Southeast 468 539 37,000 60 Climbing FlightAware
01:51 7.2630 -74.0180 138° Southeast 467 537 37,000  Level FlightAware
01:52 7.1850 -73.9470 138° Southeast 464 534 37,000  Level FlightAware
01:52 7.0970 -73.8680 138° Southeast 462 532 37,000  Level FlightAware
01:53 7.0200 -73.8030 140° Southeast 462 532 37,000  Level FlightAware
01:54 6.9400 -73.7570 150° Southeast 465 535 37,000  Level FlightAware
01:55 6.8670 -73.7170 151° Southeast 466 536 37,000  Level FlightAware
01:55 6.7950 -73.6790 152° Southeast 464 534 37,000  Level FlightAware
01:56 6.7070 -73.6310 152° Southeast 462 532 37,000  Level FlightAware
01:57 6.6300 -73.5900 152° Southeast 463 533 37,000  Level FlightAware
01:57 6.5480 -73.5450 151° Southeast 461 531 37,000  Level FlightAware
01:58 6.4720 -73.5040 152° Southeast 459 528 37,000  Level FlightAware
01:59 6.3930 -73.4610 152° Southeast 458 527 37,000  Level FlightAware
01:59 6.3150 -73.4200 152° Southeast 456 525 37,000  Level FlightAware
02:00 6.2460 -73.3830 152° Southeast 456 525 37,000  Level FlightAware
02:01 6.1720 -73.3430 152° Southeast 458 527 37,000  Level FlightAware
02:02 6.0740 -73.2880 151° Southeast 460 529 37,000  Level FlightAware
02:02 6.0170 -73.2570 152° Southeast 460 529 37,000  Level FlightAware
02:03 5.9600 -73.2250 151° Southeast 460 529 37,000  Level FlightAware
02:04 5.8840 -73.1830 151° Southeast 460 529 37,000  Level FlightAware
02:04 5.8270 -73.1510 151° Southeast 460 529 37,000  Level FlightAware
02:05 5.7510 -73.1090 151° Southeast 460 529 37,000  Level FlightAware
02:06 5.6020 -73.0350 154° Southeast 459 528 37,000  Level FlightAware
02:06 5.5260 -72.9940 152° Southeast 459 528 37,000  Level FlightAware
02:07 5.4570 -72.9570 152° Southeast 459 528 37,000  Level FlightAware
02:08 5.3840 -72.9180 152° Southeast 459 528 37,000  Level FlightAware
02:08 5.3010 -72.8730 152° Southeast 460 529 37,000  Level FlightAware
02:09 5.2310 -72.8360 152° Southeast 461 531 37,000  Level FlightAware
02:10 5.1560 -72.7950 151° Southeast 462 532 37,000  Level FlightAware
02:10 5.0820 -72.7550 152° Southeast 463 533 37,000  Level FlightAware
02:11 5.0200 -72.7210 151° Southeast 463 533 37,000  Level FlightAware
02:12 4.9460 -72.6800 151° Southeast 463 533 37,000  Level FlightAware
02:13 4.8510 -72.6270 151° Southeast 463 533 37,000  Level FlightAware
02:13 4.7940 -72.5950 151° Southeast 463 533 37,000  Level FlightAware
02:14 4.7360 -72.5630 151° Southeast 463 533 37,000  Level FlightAware
02:15 4.6600 -72.5210 151° Southeast 463 533 37,000  Level FlightAware
02:15 4.6020 -72.4890 151° Southeast 463 533 37,000  Level FlightAware
02:16 4.5440 -72.4560 150° Southeast 463 533 37,000  Level FlightAware
02:17 4.4860 -72.4240 151° Southeast 463 533 37,000  Level FlightAware
02:17 4.4100 -72.3820 151° Southeast 463 533 37,000  Level FlightAware
02:18 4.3520 -72.3500 151° Southeast 463 533 37,000  Level FlightAware
02:19 4.2740 -72.3060 151° Southeast 463 533 37,000  Level FlightAware
02:19 4.2150 -72.2740 152° Southeast 463 533 37,000  Level FlightAware
02:20 4.1390 -72.2310 151° Southeast 463 533 37,000  Level FlightAware
02:23 3.9188 -72.0381 139° Southeast  Level Estimated
02:24 3.8202 -71.9518 139° Southeast  Level Estimated
02:25 3.7216 -71.8655 139° Southeast  Level Estimated
02:26 3.6229 -71.7792 139° Southeast  Level Estimated
02:27 3.5243 -71.6929 139° Southeast  Level Estimated
02:28 3.4257 -71.6067 139° Southeast  Level Estimated
02:29 3.3270 -71.5204 139° Southeast  Level Estimated
02:30 3.2284 -71.4342 139° Southeast  Level Estimated
02:31 3.1297 -71.3480 139° Southeast  Level Estimated
02:32 3.0310 -71.2618 139° Southeast  Level Estimated
02:33 2.9323 -71.1756 139° Southeast  Level Estimated
02:34 2.8337 -71.0895 139° Southeast  Level Estimated
02:35 2.7350 -71.0033 139° Southeast  Level Estimated
02:36 2.6363 -70.9172 139° Southeast  Level Estimated
02:37 2.5376 -70.8311 139° Southeast  Level Estimated
02:38 2.4388 -70.7450 139° Southeast  Level Estimated
02:39 2.3401 -70.6589 139° Southeast  Level Estimated
02:40 2.2414 -70.5728 139° Southeast  Level Estimated
02:41 2.1427 -70.4867 139° Southeast  Level Estimated
02:42 2.0440 -70.4007 139° Southeast  Level Estimated
02:43 1.9452 -70.3147 139° Southeast  Level Estimated
02:44 1.8465 -70.2286 139° Southeast  Level Estimated
02:45 1.7477 -70.1426 139° Southeast  Level Estimated
02:46 1.6490 -70.0566 139° Southeast  Level Estimated
02:47 1.5502 -69.9706 139° Southeast  Level Estimated
02:48 1.4515 -69.8846 139° Southeast  Level Estimated
02:49 1.3527 -69.7986 139° Southeast  Level Estimated
02:50 1.2540 -69.7126 139° Southeast  Level Estimated
02:51 1.1552 -69.6266 139° Southeast  Level Estimated
02:52 1.0564 -69.5407 139° Southeast  Level Estimated
02:53 0.9577 -69.4547 139° Southeast  Level Estimated
02:54 0.8589 -69.3687 139° Southeast  Level Estimated
02:55 0.7601 -69.2828 139° Southeast  Level Estimated
02:56 0.6614 -69.1968 139° Southeast  Level Estimated
02:57 0.5626 -69.1109 139° Southeast  Level Estimated
02:58 0.4638 -69.0249 139° Southeast  Level Estimated
02:59 0.3650 -68.9390 139° Southeast  Level Estimated
03:00 0.2662 -68.8530 139° Southeast  Level Estimated
03:01 0.1674 -68.7671 139° Southeast  Level Estimated
03:02 0.0687 -68.6812 139° Southeast  Level Estimated
03:03 -0.0301 -68.5952 139° Southeast  Level Estimated
03:04 -0.1289 -68.5093 139° Southeast  Level Estimated
03:05 -0.2277 -68.4233 139° Southeast  Level Estimated
03:06 -0.3264 -68.3374 139° Southeast  Level Estimated
03:07 -0.4252 -68.2515 139° Southeast  Level Estimated
03:08 -0.5240 -68.1655 139° Southeast  Level Estimated
03:09 -0.6228 -68.0796 139° Southeast  Level Estimated
03:10 -0.7216 -67.9936 139° Southeast  Level Estimated
03:11 -0.8203 -67.9077 139° Southeast  Level Estimated
03:12 -0.9191 -67.8217 139° Southeast  Level Estimated
03:13 -1.0179 -67.7357 139° Southeast  Level Estimated
03:14 -1.1166 -67.6498 139° Southeast  Level Estimated
03:15 -1.2154 -67.5638 139° Southeast  Level Estimated
03:16 -1.3142 -67.4778 139° Southeast  Level Estimated
03:17 -1.4129 -67.3918 139° Southeast  Level Estimated
03:18 -1.5117 -67.3058 139° Southeast  Level Estimated
03:19 -1.6105 -67.2198 139° Southeast  Level Estimated
03:20 -1.7092 -67.1338 139° Southeast  Level Estimated
03:21 -1.8080 -67.0478 139° Southeast  Level Estimated
03:22 -1.9067 -66.9617 139° Southeast  Level Estimated
03:23 -2.0054 -66.8757 139° Southeast  Level Estimated
03:24 -2.1042 -66.7897 139° Southeast  Level Estimated
03:25 -2.2029 -66.7036 139° Southeast  Level Estimated
03:26 -2.3016 -66.6175 139° Southeast  Level Estimated
03:27 -2.4003 -66.5314 139° Southeast  Level Estimated
03:28 -2.4990 -66.4454 139° Southeast  Level Estimated
03:29 -2.5977 -66.3592 139° Southeast  Level Estimated
03:30 -2.6964 -66.2731 139° Southeast  Level Estimated
03:31 -2.7951 -66.1870 139° Southeast  Level Estimated
03:32 -2.8938 -66.1008 139° Southeast  Level Estimated
03:33 -2.9925 -66.0147 139° Southeast  Level Estimated
03:34 -3.0912 -65.9285 139° Southeast  Level Estimated
03:35 -3.1899 -65.8423 139° Southeast  Level Estimated
03:36 -3.2885 -65.7561 139° Southeast  Level Estimated
03:37 -3.3872 -65.6698 139° Southeast  Level Estimated
03:38 -3.4858 -65.5836 139° Southeast  Level Estimated
03:39 -3.5845 -65.4973 139° Southeast  Level Estimated
03:40 -3.6831 -65.4110 139° Southeast  Level Estimated
03:41 -3.7817 -65.3247 139° Southeast  Level Estimated
03:42 -3.8803 -65.2384 139° Southeast  Level Estimated
03:43 -3.9789 -65.1520 139° Southeast  Level Estimated
03:44 -4.0775 -65.0657 139° Southeast  Level Estimated
03:45 -4.1761 -64.9793 139° Southeast  Level Estimated
03:46 -4.2747 -64.8929 139° Southeast  Level Estimated
03:47 -4.3733 -64.8064 139° Southeast  Level Estimated
03:48 -4.4718 -64.7200 139° Southeast  Level Estimated
03:49 -4.5704 -64.6335 139° Southeast  Level Estimated
03:50 -4.6689 -64.5470 139° Southeast  Level Estimated
03:51 -4.7674 -64.4605 139° Southeast  Level Estimated
03:52 -4.8659 -64.3739 139° Southeast  Level Estimated
03:53 -4.9644 -64.2873 139° Southeast  Level Estimated
03:54 -5.0629 -64.2007 139° Southeast  Level Estimated
03:55 -5.1614 -64.1141 139° Southeast  Level Estimated
03:56 -5.2599 -64.0275 139° Southeast  Level Estimated
03:57 -5.3583 -63.9408 139° Southeast  Level Estimated
03:58 -5.4568 -63.8541 139° Southeast  Level Estimated
03:59 -5.5552 -63.7673 139° Southeast  Level Estimated
04:00 -5.6536 -63.6806 139° Southeast  Level Estimated
04:01 -5.7520 -63.5938 139° Southeast  Level Estimated
04:02 -5.8504 -63.5069 139° Southeast  Level Estimated
04:03 -5.9488 -63.4201 139° Southeast  Level Estimated
04:04 -6.0472 -63.3332 139° Southeast  Level Estimated
04:05 -6.1455 -63.2463 139° Southeast  Level Estimated
04:06 -6.2439 -63.1593 139° Southeast  Level Estimated
04:07 -6.3422 -63.0723 139° Southeast  Level Estimated
04:08 -6.4405 -62.9853 139° Southeast  Level Estimated
04:09 -6.5388 -62.8983 139° Southeast  Level Estimated
04:10 -6.6371 -62.8112 139° Southeast  Level Estimated
04:11 -6.7354 -62.7240 139° Southeast  Level Estimated
04:12 -6.8336 -62.6369 139° Southeast  Level Estimated
04:13 -6.9318 -62.5497 139° Southeast  Level Estimated
04:14 -7.0301 -62.4625 139° Southeast  Level Estimated
04:15 -7.1283 -62.3752 139° Southeast  Level Estimated
04:16 -7.2264 -62.2879 139° Southeast  Level Estimated
04:17 -7.3246 -62.2006 139° Southeast  Level Estimated
04:18 -7.4228 -62.1132 139° Southeast  Level Estimated
04:19 -7.5209 -62.0258 139° Southeast  Level Estimated
04:20 -7.6190 -61.9383 139° Southeast  Level Estimated
04:21 -7.7171 -61.8508 139° Southeast  Level Estimated
04:22 -7.8152 -61.7633 139° Southeast  Level Estimated
04:23 -7.9133 -61.6757 139° Southeast  Level Estimated
04:24 -8.0113 -61.5881 138° Southeast  Level Estimated
04:25 -8.1094 -61.5004 138° Southeast  Level Estimated
04:26 -8.2074 -61.4127 138° Southeast  Level Estimated
04:27 -8.3054 -61.3249 138° Southeast  Level Estimated
04:28 -8.4033 -61.2371 138° Southeast  Level Estimated
04:29 -8.5013 -61.1493 138° Southeast  Level Estimated
04:30 -8.5992 -61.0614 138° Southeast  Level Estimated
04:31 -8.6973 -60.9734 138° Southeast  Level Estimated
04:32 -8.7953 -60.8852 138° Southeast  Level Estimated
04:33 -8.8934 -60.7970 138° Southeast  Level Estimated
04:34 -8.9914 -60.7088 138° Southeast  Level Estimated
04:35 -9.0894 -60.6205 138° Southeast  Level Estimated
04:36 -9.1874 -60.5322 138° Southeast  Level Estimated
04:37 -9.2853 -60.4439 138° Southeast  Level Estimated
04:38 -9.3833 -60.3554 138° Southeast  Level Estimated
04:39 -9.4812 -60.2670 138° Southeast  Level Estimated
04:40 -9.5791 -60.1785 138° Southeast  Level Estimated
04:41 -9.6770 -60.0899 138° Southeast  Level Estimated
04:42 -9.7748 -60.0013 138° Southeast  Level Estimated
04:43 -9.8726 -59.9126 138° Southeast  Level Estimated
04:44 -9.9704 -59.8239 138° Southeast  Level Estimated
04:45 -10.0682 -59.7351 138° Southeast  Level Estimated
04:46 -10.1660 -59.6463 138° Southeast  Level Estimated
04:47 -10.2637 -59.5574 138° Southeast  Level Estimated
04:48 -10.3614 -59.4684 138° Southeast  Level Estimated
04:49 -10.4591 -59.3794 138° Southeast  Level Estimated
04:50 -10.5568 -59.2904 138° Southeast  Level Estimated
04:51 -10.6544 -59.2013 138° Southeast  Level Estimated
04:52 -10.7522 -59.1119 138° Southeast  Level Estimated
04:53 -10.8499 -59.0226 138° Southeast  Level Estimated
04:54 -10.9476 -58.9331 138° Southeast  Level Estimated
04:55 -11.0454 -58.8436 138° Southeast  Level Estimated
04:56 -11.1430 -58.7541 138° Southeast  Level Estimated
04:57 -11.2407 -58.6645 138° Southeast  Level Estimated
04:58 -11.3383 -58.5748 138° Southeast  Level Estimated
04:59 -11.4359 -58.4850 138° Southeast  Level Estimated
05:00 -11.5335 -58.3952 138° Southeast  Level Estimated
05:01 -11.6310 -58.3054 138° Southeast  Level Estimated
05:02 -11.7285 -58.2154 138° Southeast  Level Estimated
05:03 -11.8260 -58.1254 138° Southeast  Level Estimated
05:04 -11.9235 -58.0354 138° Southeast  Level Estimated
05:05 -12.0209 -57.9453 138° Southeast  Level Estimated
05:06 -12.1183 -57.8551 138° Southeast  Level Estimated
05:07 -12.2157 -57.7648 138° Southeast  Level Estimated
05:08 -12.3130 -57.6745 138° Southeast  Level Estimated
05:09 -12.4103 -57.5841 138° Southeast  Level Estimated
05:10 -12.5076 -57.4937 138° Southeast  Level Estimated
05:11 -12.6048 -57.4031 138° Southeast  Level Estimated
05:12 -12.7021 -57.3125 138° Southeast  Level Estimated
05:13 -12.7992 -57.2219 138° Southeast  Level Estimated
05:14 -12.8964 -57.1312 138° Southeast  Level Estimated
05:15 -12.9935 -57.0404 138° Southeast  Level Estimated
05:16 -13.0906 -56.9495 138° Southeast  Level Estimated
05:17 -13.1877 -56.8586 138° Southeast  Level Estimated
05:18 -13.2847 -56.7675 138° Southeast  Level Estimated
05:19 -13.3817 -56.6764 138° Southeast  Level Estimated
05:20 -13.4785 -56.5854 138° Southeast  Level Estimated
05:21 -13.5753 -56.4944 138° Southeast  Level Estimated
05:22 -13.6720 -56.4032 138° Southeast  Level Estimated
05:23 -13.7687 -56.3120 138° Southeast  Level Estimated
05:24 -13.8654 -56.2207 137° Southeast  Level Estimated
05:25 -13.9620 -56.1293 137° Southeast  Level Estimated
05:26 -14.0586 -56.0379 137° Southeast  Level Estimated
05:27 -14.1552 -55.9464 137° Southeast  Level Estimated
05:28 -14.2517 -55.8548 137° Southeast  Level Estimated
05:29 -14.3482 -55.7631 137° Southeast  Level Estimated
05:30 -14.4446 -55.6713 137° Southeast  Level Estimated
05:31 -14.5411 -55.5795 137° Southeast  Level Estimated
05:32 -14.6374 -55.4875 137° Southeast  Level Estimated
05:33 -14.7338 -55.3955 137° Southeast  Level Estimated
05:34 -14.8301 -55.3035 137° Southeast  Level Estimated
05:35 -14.9264 -55.2113 137° Southeast  Level Estimated
05:36 -15.0226 -55.1190 137° Southeast  Level Estimated
05:37 -15.1188 -55.0267 137° Southeast  Level Estimated
05:38 -15.2150 -54.9343 137° Southeast  Level Estimated
05:39 -15.3111 -54.8418 137° Southeast  Level Estimated
05:40 -15.4072 -54.7492 137° Southeast  Level Estimated
05:41 -15.5033 -54.6565 137° Southeast  Level Estimated
05:42 -15.5993 -54.5638 137° Southeast  Level Estimated
05:43 -15.6952 -54.4709 137° Southeast  Level Estimated
05:44 -15.7912 -54.3780 137° Southeast  Level Estimated
05:45 -15.8870 -54.2850 137° Southeast  Level Estimated
05:46 -15.9829 -54.1919 137° Southeast  Level Estimated
05:47 -16.0787 -54.0987 137° Southeast  Level Estimated
05:48 -16.1745 -54.0054 137° Southeast  Level Estimated
05:49 -16.2702 -53.9120 137° Southeast  Level Estimated
05:50 -16.3659 -53.8185 137° Southeast  Level Estimated
05:51 -16.4615 -53.7250 137° Southeast  Level Estimated
05:52 -16.5572 -53.6313 137° Southeast  Level Estimated
05:53 -16.6527 -53.5376 137° Southeast  Level Estimated
05:54 -16.7482 -53.4437 137° Southeast  Level Estimated
05:55 -16.8437 -53.3498 137° Southeast  Level Estimated
05:56 -16.9392 -53.2558 137° Southeast  Level Estimated
05:57 -17.0346 -53.1616 137° Southeast  Level Estimated
05:58 -17.1299 -53.0674 137° Southeast  Level Estimated
05:59 -17.2252 -52.9731 137° Southeast  Level Estimated
06:00 -17.3205 -52.8787 137° Southeast  Level Estimated
06:01 -17.4157 -52.7842 137° Southeast  Level Estimated
06:02 -17.5109 -52.6896 137° Southeast  Level Estimated
06:03 -17.6060 -52.5949 137° Southeast  Level Estimated
06:04 -17.7011 -52.5000 136° Southeast  Level Estimated
06:05 -17.7962 -52.4051 136° Southeast  Level Estimated
06:06 -17.8911 -52.3101 136° Southeast  Level Estimated
06:07 -17.9861 -52.2150 136° Southeast  Level Estimated
06:08 -18.0810 -52.1198 136° Southeast  Level Estimated
06:09 -18.1758 -52.0245 136° Southeast  Level Estimated
06:10 -18.2707 -51.9291 136° Southeast  Level Estimated
06:11 -18.3654 -51.8335 136° Southeast  Level Estimated
06:12 -18.4601 -51.7379 136° Southeast  Level Estimated
06:13 -18.5548 -51.6422 136° Southeast  Level Estimated
06:14 -18.6494 -51.5463 136° Southeast  Level Estimated
06:15 -18.7440 -51.4504 136° Southeast  Level Estimated
06:16 -18.8385 -51.3543 136° Southeast  Level Estimated
06:17 -18.9330 -51.2581 136° Southeast  Level Estimated
06:17 -18.9040 -50.7750 136° Southeast 519 597 39,000  Level FlightAware
06:18 -19.0274 -51.1619 136° Southeast  Level Estimated
06:18 -18.9570 -50.7160 134° Southeast 519 597 39,000  Level FlightAware
06:18 -19.0470 -50.6200 135° Southeast 521 600 39,000  Level FlightAware
06:19 -19.1170 -50.5430 134° Southeast 522 601 39,000  Level FlightAware
06:20 -19.1660 -50.4890 134° Southeast 523 602 39,000  Level FlightAware
06:20 -19.2280 -50.4220 134° Southeast 524 603 39,000  Level FlightAware
06:21 -19.3040 -50.3380 134° Southeast 524 603 39,000  Level FlightAware
06:22 -19.3720 -50.2640 134° Southeast 526 605 39,000  Level FlightAware
06:22 -19.4070 -50.2250 134° Southeast 526 605 39,000  Level FlightAware
06:23 -19.5110 -50.1110 134° Southeast 527 606 39,000  Level FlightAware
06:24 -19.5860 -50.0270 133° Southeast 528 608 39,000  Level FlightAware
06:24 -19.6500 -49.9570 134° Southeast 528 608 39,000  Level FlightAware
06:25 -19.7150 -49.8870 135° Southeast 528 608 39,000  Level FlightAware
06:26 -19.7810 -49.8150 134° Southeast 529 609 39,000  Level FlightAware
06:26 -19.8550 -49.7330 134° Southeast 529 609 39,000  Level FlightAware
06:27 -19.9090 -49.6740 134° Southeast 530 610 39,000  Level FlightAware
06:28 -19.9820 -49.5950 135° Southeast 531 611 39,000  Level FlightAware
06:28 -20.0600 -49.5170 137° Southeast 527 606 39,000  Level FlightAware
06:29 -20.1460 -49.4380 139° Southeast 529 609 39,000  Level FlightAware
06:30 -20.2190 -49.3710 139° Southeast 531 611 39,000  Level FlightAware
06:31 -20.2940 -49.2990 138° Southeast 532 612 39,000  Level FlightAware
06:31 -20.3710 -49.2250 138° Southeast 534 615 39,000  Level FlightAware
06:32 -20.4410 -49.1590 139° Southeast 534 615 39,000  Level FlightAware
06:33 -20.5190 -49.0840 138° Southeast 535 616 39,000  Level FlightAware
06:33 -20.5910 -49.0150 138° Southeast 537 618 39,000  Level FlightAware
06:34 -20.6590 -48.9500 138° Southeast 538 619 39,000  Level FlightAware
06:35 -20.7460 -48.8660 138° Southeast 538 619 39,000  Level FlightAware
06:35 -20.8250 -48.7920 139° Southeast 538 619 39,000  Level FlightAware
06:36 -20.9060 -48.7150 138° Southeast 538 619 39,000  Level FlightAware
06:37 -20.9880 -48.6370 138° Southeast 539 620 39,000  Level FlightAware
06:37 -21.0620 -48.5660 138° Southeast 540 621 39,000  Level FlightAware
06:38 -21.1440 -48.4870 138° Southeast 540 621 39,000  Level FlightAware
06:39 -21.2130 -48.4220 139° Southeast 541 623 39,000  Level FlightAware
06:39 -21.2870 -48.3510 158° South 542 624 39,000 -180 Level FlightAware
06:41 -21.4244 -48.3321 158° South  Level FlightAware Approximate
06:42 -21.5220 -48.1250 138° Southeast 540 621 38,500  Level FlightAware
06:42 -21.6020 -48.0480 138° Southeast 548 631 37,400 -1,500 Descending FlightAware
06:43 -21.6760 -47.9760 138° Southeast 554 638 36,500 -1,440 Descending FlightAware
06:44 -21.7460 -47.9090 138° Southeast 560 644 35,600 -2,340 Descending FlightAware
06:44 -21.8310 -47.8260 138° Southeast 568 654 33,400 -2,820 Descending FlightAware
06:45 -21.9010 -47.7580 138° Southeast 562 647 31,900 -2,220 Descending FlightAware
06:46 -21.9790 -47.6820 138° Southeast 553 636 30,600 -1,980 Descending FlightAware
06:46 -22.0540 -47.6100 138° Southeast 541 623 29,300 -1,980 Descending FlightAware
06:47 -22.1300 -47.5350 138° Southeast 531 611 27,900 -1,980 Descending FlightAware
06:48 -22.2080 -47.4590 138° Southeast 521 600 26,600 -1,860 Descending FlightAware
06:48 -22.2890 -47.3800 138° Southeast 512 589 25,200 -1,920 Descending FlightAware
06:49 -22.3600 -47.3110 138° Southeast 503 579 23,900 -1,800 Descending FlightAware
06:50 -22.4340 -47.2380 138° Southeast 489 563 22,700 -1,800 Descending FlightAware
06:50 -22.4920 -47.1820 138° Southeast 478 550 21,600 -1,860 Descending FlightAware
06:51 -22.5510 -47.1240 138° Southeast 469 540 20,500 -1,860 Descending FlightAware
06:52 -22.6390 -47.0720 151° Southeast 435 501 19,000 -1,860 Descending FlightAware
06:52 -22.7050 -47.0440 159° South 423 487 17,900 -1,920 Descending FlightAware
06:53 -22.7780 -47.0130 159° South 416 479 16,600 -1,860 Descending FlightAware
06:54 -22.8520 -46.9820 159° South 408 470 15,400 -1,920 Descending FlightAware
06:54 -22.9260 -46.9510 159° South 365 420 13,900 -2,040 Descending FlightAware
06:55 -22.9890 -46.9250 159° South 349 402 12,600 -1,980 Descending FlightAware
06:56 -23.0530 -46.8980 159° South 330 380 11,200 -1,860 Descending FlightAware
06:57 -23.1070 -46.8750 159° South 304 350 10,000 -1,620 Descending FlightAware
06:57 -23.1400 -46.8610 159° South 303 349 9,500 -1,260 Descending FlightAware
06:57 -23.1720 -46.8480 160° South 298 343 9,000 -1,200 Descending FlightAware
06:58 -23.2060 -46.8330 158° South 295 339 8,500 -1,200 Descending FlightAware
06:58 -23.2220 -46.8260 158° South 294 338 8,200 -1,140 Descending FlightAware
06:59 -23.2630 -46.8090 159° South 283 326 7,700 -780 Descending FlightAware
06:59 -23.2920 -46.7970 159° South 268 308 7,500 -540 Descending FlightAware
06:59 -23.3170 -46.7860 158° South 253 291 7,300 -600 Descending FlightAware
07:00 -23.3440 -46.7750 159° South 234 269 7,000 -780 Descending FlightAware
07:00 -23.3590 -46.7690 160° South 231 266 6,800 -720 Descending FlightAware
07:00 -23.3840 -46.7520 148° Southeast 229 264 6,500 -900 Descending FlightAware
07:01 -23.4060 -46.7310 139° Southeast 229 264 6,000 -1,020 Descending FlightAware
07:01 -23.4290 -46.7100 140° Southeast 217 250 5,600 -900 Descending FlightAware
07:02 -23.4380 -46.7010 137° Southeast 218 251 5,400 -1,020 Descending FlightAware
07:02 -23.4490 -46.6870 131° Southeast 207 238 5,100 -660 Descending FlightAware
07:02 -23.4610 -46.6630 119° Southeast 185 213 4,900 -540 Descending FlightAware
07:03 -23.4700 -46.6410 114° Southeast 163 188 4,600 -600 Descending FlightAware
07:03 -23.4750 -46.6250 109° East 150 173 4,400 -240 Descending FlightAware
07:04 -23.4690 -46.6000 75° East 154 177 4,400 -480 Level FlightAware
07:04 -23.4650 -46.5840 75° East 156 180 4,000 -1,020 Descending FlightAware
07:04 -23.4620 -46.5720 75° East 153 176 3,800 -840 Descending FlightAware
07:05 -23.4570 -46.5530 74° East 146 168 3,400 -900 Descending FlightAware
07:05 -23.4510 -46.5330 72° East 142 163 3,000 -780 Descending FlightAware
07:06 -23.4480 -46.5210 75° East 142 163 2,800 -660 Descending FlightAware
07:06 -23.4430 -46.5020 74° East 136 157 2,500 -780 Descending FlightAware
07:07 -23.4380 -46.4820 75° East 140 161 2,100 -840 Descending FlightAware
07:07 -23.4350 -46.4710 73° East 78 90 -6,660 Descending FlightAware
07:07 -23.4320 -46.4620 70° East 64 74  Level FlightAware